^^
Grace C. Lehan Memorial Weather Station Historical Data
Daily Summary for February 13, 2021 Units:  English    Metric   Both
Daily Weekly Monthly Yearly
  High: Low: Average:
Temperature: 62 °F 37.5 °F 46.1 °F
Dew Point: 51.8 °F 35.2 °F 41.9 °F
Humidity: 97% 47.1% 87%
Wind Speed: 11.7mph 0mph 1.5mph
Wind Gust: 30mph - -
Wind- - WSW
Pressure: 29.90 in 29.47 in -
Precipitation: 0.41 in    
 
 
Tabular Data for February 13, 2021
Time Temperature Dew Point Pressure Wind Wind Speed Wind Gust Humidity Rainfall Rate (Hourly) solar
00:04 44.8 °F 43.2 °F 29.89 in Calm     94% 0.00 in 0 W/m2
00:09 44.6 °F 43 °F 29.89 in Calm     94% 0.00 in 0 W/m2
00:14 44.4 °F 42.8 °F 29.89 in Calm     94% 0.00 in 0 W/m2
00:19 44.3 °F 42.6 °F 29.89 in Calm     94% 0.00 in 0 W/m2
00:24 44.2 °F 42.5 °F 29.89 in Calm     94% 0.00 in 0 W/m2
00:29 44 °F 42.5 °F 29.89 in Calm     94.3% 0.00 in 0 W/m2
00:34 44 °F 42.6 °F 29.89 in Calm     95% 0.00 in 0 W/m2
00:39 43.8 °F 42.5 °F 29.89 in Calm     94.9% 0.00 in 0 W/m2
00:44 43.7 °F 42.1 °F 29.89 in Calm     94.4% 0.00 in 0 W/m2
00:49 43.5 °F 41.9 °F 29.89 in Calm     94.2% 0.00 in 0 W/m2
00:54 43.4 °F 42 °F 29.89 in Calm     95% 0.00 in 0 W/m2
00:59 43.3 °F 41.9 °F 29.89 in Calm     95% 0.00 in 0 W/m2
01:04 43.2 °F 41.9 °F 29.89 in Calm     95% 0.00 in 0 W/m2
01:09 43.2 °F 41.9 °F 29.89 in Calm     95% 0.00 in 0 W/m2
01:14 43.1 °F 41.7 °F 29.89 in Calm     95% 0.00 in 0 W/m2
01:19 42.9 °F 41.6 °F 29.90 in Calm     95% 0.00 in 0 W/m2
01:24 42.7 °F 41.4 °F 29.89 in Calm     95% 0.00 in 0 W/m2
01:29 42.6 °F 41.3 °F 29.89 in Calm     95% 0.00 in 0 W/m2
01:34 42.5 °F 41.1 °F 29.89 in Calm     95% 0.00 in 0 W/m2
01:39 42.3 °F 41 °F 29.89 in Calm     95% 0.00 in 0 W/m2
01:44 42.2 °F 40.8 °F 29.89 in Calm     95% 0.00 in 0 W/m2
01:49 42 °F 40.7 °F 29.89 in Calm     95% 0.00 in 0 W/m2
01:54 41.9 °F 40.6 °F 29.89 in Calm     95% 0.00 in 0 W/m2
01:59 41.9 °F 40.5 °F 29.89 in Calm     95% 0.00 in 0 W/m2
02:04 41.7 °F 40.4 °F 29.89 in Calm     95% 0.00 in 0 W/m2
02:09 41.5 °F 40.2 °F 29.89 in Calm     95% 0.00 in 0 W/m2
02:14 41.4 °F 40 °F 29.88 in Calm     95% 0.00 in 0 W/m2
02:19 41.2 °F 39.9 °F 29.88 in Calm     95% 0.00 in 0 W/m2
02:24 41.1 °F 39.8 °F 29.88 in Calm     95% 0.00 in 0 W/m2
02:29 41 °F 39.7 °F 29.88 in Calm     95% 0.00 in 0 W/m2
02:34 40.9 °F 39.6 °F 29.88 in Calm     95% 0.00 in 0 W/m2
02:39 40.9 °F 39.6 °F 29.87 in Calm     95% 0.00 in 0 W/m2
02:44 40.8 °F 39.5 °F 29.87 in Calm     95% 0.00 in 0 W/m2
02:49 40.8 °F 39.5 °F 29.86 in Calm     95% 0.00 in 0 W/m2
02:54 40.8 °F 39.5 °F 29.86 in Calm     95% 0.00 in 0 W/m2
02:59 40.7 °F 39.4 °F 29.86 in Calm     95% 0.00 in 0 W/m2
03:04 40.6 °F 39.3 °F 29.86 in Calm     95% 0.00 in 0 W/m2
03:09 40.4 °F 39.1 °F 29.86 in Calm     95% 0.00 in 0 W/m2
03:14 40.3 °F 39 °F 29.86 in Calm     95% 0.00 in 0 W/m2
03:19 40.1 °F 38.8 °F 29.86 in Calm     95% 0.00 in 0 W/m2
03:24 40.2 °F 38.8 °F 29.86 in Calm     95% 0.00 in 0 W/m2
03:29 40.2 °F 38.9 °F 29.85 in Calm     95% 0.00 in 0 W/m2
03:34 40.2 °F 38.9 °F 29.86 in Calm     95% 0.00 in 0 W/m2
03:39 40.2 °F 38.9 °F 29.86 in Calm     95% 0.00 in 0 W/m2
03:44 40.2 °F 38.8 °F 29.85 in Calm     95% 0.00 in 0 W/m2
03:49 40 °F 38.7 °F 29.85 in Calm     95% 0.00 in 0 W/m2
03:54 39.9 °F 38.6 °F 29.86 in Calm     95% 0.00 in 0 W/m2
03:59 39.8 °F 38.5 °F 29.86 in Calm     95% 0.00 in 0 W/m2
04:09 39.7 °F 38.4 °F 29.87 in Calm     95% 0.00 in 0 W/m2
04:14 39.7 °F 38.4 °F 29.87 in Calm     95% 0.00 in 0 W/m2
04:19 39.8 °F 38.5 °F 29.87 in Calm     95% 0.00 in 0 W/m2
04:24 39.8 °F 38.5 °F 29.87 in Calm     95% 0.00 in 0 W/m2
04:29 39.8 °F 38.5 °F 29.87 in Calm     95% 0.00 in 0 W/m2
04:34 39.7 °F 38.4 °F 29.87 in Calm     95% 0.00 in 0 W/m2
04:39 39.6 °F 38.3 °F 29.87 in Calm     95% 0.00 in 0 W/m2
04:44 39.6 °F 38.5 °F 29.87 in Calm     95.8% 0.00 in 0 W/m2
04:49 39.5 °F 38.5 °F 29.87 in Calm     96% 0.00 in 0 W/m2
04:54 39.5 °F 38.4 °F 29.87 in Calm     96% 0.00 in 0 W/m2
04:59 39.4 °F 38.1 °F 29.87 in Calm     95.3% 0.00 in 0 W/m2
05:04 39.3 °F 38 °F 29.87 in Calm     95% 0.00 in 0 W/m2
05:09 39.3 °F 38 °F 29.88 in Calm     95% 0.00 in 0 W/m2
05:14 39.2 °F 37.9 °F 29.88 in Calm     95% 0.00 in 0 W/m2
05:19 39 °F 37.7 °F 29.88 in Calm     95% 0.00 in 0 W/m2
05:24 38.9 °F 37.6 °F 29.88 in Calm     95% 0.00 in 0 W/m2
05:29 38.8 °F 37.7 °F 29.88 in Calm     95.7% 0.00 in 0 W/m2
05:34 38.8 °F 37.5 °F 29.88 in Calm     95.1% 0.00 in 0 W/m2
05:39 38.7 °F 37.4 °F 29.87 in Calm     95% 0.00 in 0 W/m2
05:44 38.7 °F 37.4 °F 29.87 in Calm     95.1% 0.00 in 0 W/m2
05:49 38.6 °F 37.6 °F 29.87 in Calm     96% 0.00 in 0 W/m2
05:54 38.5 °F 37.5 °F 29.87 in Calm     96% 0.00 in 0 W/m2
05:59 38.5 °F 37.4 °F 29.87 in Calm     96% 0.00 in 0 W/m2
06:04 38.4 °F 37.4 °F 29.86 in Calm     96% 0.00 in 0 W/m2
06:09 38.4 °F 37.3 °F 29.86 in Calm     95.8% 0.00 in 0 W/m2
06:14 38.3 °F 37.1 °F 29.86 in Calm     95.5% 0.00 in 0 W/m2
06:19 38.2 °F 36.9 °F 29.86 in Calm     95.2% 0.00 in 0 W/m2
06:24 38 °F 36.7 °F 29.86 in Calm     95% 0.00 in 0 W/m2
06:29 37.8 °F 36.7 °F 29.86 in Calm     95.4% 0.00 in 0 W/m2
06:34 37.7 °F 36.7 °F 29.86 in Calm     95.9% 0.00 in 0 W/m2
06:39 37.5 °F 36.2 °F 29.87 in Calm     95% 0.00 in 0 W/m2
06:44 37.5 °F 36.2 °F 29.86 in Calm     95% 0.00 in 5 W/m2
06:49 37.5 °F 36.3 °F 29.86 in Calm     95.5% 0.00 in 9 W/m2
06:54 37.5 °F 36.5 °F 29.86 in Calm     96% 0.00 in 11 W/m2
06:59 37.5 °F 36.5 °F 29.86 in Calm     96% 0.00 in 14 W/m2
07:04 37.7 °F 36.6 °F 29.86 in Calm     96% 0.00 in 16 W/m2
07:09 37.6 °F 36.6 °F 29.86 in Calm     96% 0.00 in 30 W/m2
07:14 37.7 °F 36.6 °F 29.86 in Calm     96% 0.00 in 51 W/m2
07:19 37.9 °F 36.8 °F 29.85 in Calm     96% 0.00 in 42 W/m2
07:24 38.2 °F 37.1 °F 29.85 in Calm     96% 0.00 in 25 W/m2
07:29 38.6 °F 37.5 °F 29.85 in Calm     96% 0.00 in 39 W/m2
07:34 38.8 °F 37.8 °F 29.85 in Calm     96% 0.00 in 44 W/m2
07:39 39.1 °F 38.1 °F 29.84 in Calm     96% 0.00 in 44 W/m2
07:44 39.4 °F 38.3 °F 29.84 in Calm     96% 0.00 in 54 W/m2
07:49 39.6 °F 38.6 °F 29.84 in Calm     96% 0.00 in 53 W/m2
07:54 40 °F 38.9 °F 29.85 in Calm     96% 0.00 in 125 W/m2
07:59 40.4 °F 39.4 °F 29.84 in Calm     96.3% 0.00 in 190 W/m2
08:00 40.7 °F 39.9 °F 29.84 in Calm     97% 0.00 in 172 W/m2
08:09 41.6 °F 40.8 °F 29.84 in Calm     97% 0.00 in 206 W/m2
08:14 42.1 °F 41.3 °F 29.84 in Calm     97% 0.00 in 243 W/m2
08:19 42.7 °F 41.9 °F 29.83 in Calm     97% 0.00 in 262 W/m2
08:24 43.4 °F 42.6 °F 29.83 in Calm     97% 0.00 in 271 W/m2
08:29 44 °F 43.2 °F 29.83 in Calm     97% 0.00 in 281 W/m2
08:34 44.6 °F 43.8 °F 29.83 in Calm     97% 0.00 in 290 W/m2
08:39 45.3 °F 44.5 °F 29.82 in Calm   1 mph 97% 0.00 in 299 W/m2
08:44 45.9 °F 45.1 °F 29.82 in Calm   1 mph 97% 0.00 in 306 W/m2
08:49 46.7 °F 45.9 °F 29.82 in Calm   1 mph 97% 0.00 in 313 W/m2
08:54 47.3 °F 46.5 °F 29.82 in Calm   1 mph 97% 0.00 in 323 W/m2
08:59 47.7 °F 46.9 °F 29.82 in WNW 0.6 mph 3 mph 97% 0.00 in 336 W/m2
09:04 47.9 °F 46.8 °F 29.81 in Calm   3 mph 95.9% 0.00 in 341 W/m2
09:09 48 °F 46.4 °F 29.81 in Calm     93.9% 0.00 in 287 W/m2
09:14 48.1 °F 45.9 °F 29.81 in Calm     92.2% 0.00 in 186 W/m2
09:19 48 °F 45.5 °F 29.81 in WNW 0.2 mph 2 mph 91.1% 0.00 in 330 W/m2
09:24 47.9 °F 45.4 °F 29.80 in WNW 0.4 mph 4 mph 91% 0.00 in 230 W/m2
09:29 48.1 °F 45.6 °F 29.80 in WNW 0.2 mph 4 mph 91% 0.00 in 160 W/m2
09:34 48.1 °F 45.6 °F 29.80 in WNW 0.2 mph 4 mph 90.8% 0.00 in 146 W/m2
09:39 48.1 °F 45.3 °F 29.80 in WNW 0.1 mph 2 mph 90% 0.00 in 107 W/m2
09:44 48 °F 45 °F 29.79 in Calm   2 mph 89.3% 0.00 in 320 W/m2
09:49 48 °F 45 °F 29.79 in Calm   2 mph 89.5% 0.00 in 348 W/m2
09:54 48.2 °F 45.6 °F 29.79 in WNW 0.6 mph 3 mph 90.7% 0.00 in 188 W/m2
09:59 48.4 °F 45.6 °F 29.79 in Calm   3 mph 90% 0.00 in 209 W/m2
10:04 48.7 °F 45.9 °F 29.79 in WNW 0.5 mph 4 mph 90% 0.00 in 345 W/m2
10:09 49.2 °F 46.4 °F 29.78 in WNW 0.2 mph 4 mph 90% 0.00 in 454 W/m2
10:14 49.8 °F 46.8 °F 29.77 in WNW 0.1 mph 4 mph 89.3% 0.00 in 471 W/m2
10:19 50.5 °F 47.3 °F 29.77 in NW 0.8 mph 4 mph 88.7% 0.00 in 485 W/m2
10:24 51.1 °F 47.4 °F 29.77 in Calm   4 mph 87.1% 0.00 in 497 W/m2
10:29 51.5 °F 47.1 °F 29.76 in Calm   4 mph 84.8% 0.00 in 503 W/m2
10:34 52 °F 47.7 °F 29.76 in Calm   4 mph 85.1% 0.00 in 510 W/m2
10:39 52.6 °F 48.2 °F 29.76 in Calm     85% 0.00 in 512 W/m2
10:44 53.3 °F 48.6 °F 29.75 in Calm     84% 0.00 in 223 W/m2
10:49 53.8 °F 48.9 °F 29.75 in Calm     83.6% 0.00 in 95 W/m2
10:54 54.1 °F 49 °F 29.75 in Calm     82.6% 0.00 in 176 W/m2
10:59 54.4 °F 49.2 °F 29.74 in Calm     82.6% 0.00 in 276 W/m2
11:04 54.7 °F 49.5 °F 29.74 in Calm     82.5% 0.00 in 325 W/m2
11:09 55.1 °F 49.7 °F 29.73 in Calm     82% 0.00 in 323 W/m2
11:13 55.4 °F 49.8 °F 29.73 in Calm     81.5% 0.00 in 207 W/m2
11:19 55.8 °F 50.1 °F 29.73 in NW 0.3 mph 3 mph 80.8% 0.00 in 178 W/m2
11:24 56.1 °F 49.4 °F 29.72 in NW 0.6 mph 4 mph 78.3% 0.00 in 230 W/m2
11:29 56.2 °F 49.5 °F 29.72 in Calm   4 mph 78% 0.00 in 253 W/m2
11:34 56.5 °F 49.7 °F 29.71 in NW 0.1 mph 4 mph 78% 0.00 in 399 W/m2
11:39 56.9 °F 50.2 °F 29.71 in Calm   2 mph 78.3% 0.00 in 399 W/m2
11:44 57.3 °F 50.3 °F 29.71 in Calm   2 mph 77.4% 0.00 in 181 W/m2
11:49 57.8 °F 51.2 °F 29.70 in Calm   2 mph 78.5% 0.00 in 258 W/m2
11:54 58.4 °F 50.9 °F 29.70 in WSW 1.1 mph 7 mph 76.1% 0.00 in 287 W/m2
11:59 59.1 °F 50.6 °F 29.70 in SSE 1.9 mph 9 mph 73.3% 0.00 in 169 W/m2
12:09 60.6 °F 47.6 °F 29.68 in SSE 2.7 mph 7 mph 62.2% 0.00 in 192 W/m2
12:14 60.9 °F 47.3 °F 29.68 in SSE 2.4 mph 9 mph 60.9% 0.00 in 100 W/m2
12:19 61.1 °F 46.8 °F 29.68 in SE 2.2 mph 9 mph 59.2% 0.00 in 109 W/m2
12:24 61.3 °F 46.3 °F 29.67 in SE 1.8 mph 9 mph 57.8% 0.00 in 188 W/m2
12:29 61.5 °F 46.3 °F 29.67 in South 1.1 mph 9 mph 57.3% 0.00 in 264 W/m2
12:34 61.8 °F 43.9 °F 29.65 in South 3.9 mph 10 mph 51.9% 0.00 in 248 W/m2
12:39 61.8 °F 43.3 °F 29.65 in South 2.2 mph 10 mph 50.6% 0.00 in 113 W/m2
12:44 61.9 °F 43.4 °F 29.65 in South 3.9 mph 11 mph 50.7% 0.00 in 81 W/m2
12:49 61.9 °F 42.4 °F 29.65 in South 2.8 mph 11 mph 48.8% 0.00 in 144 W/m2
12:54 62 °F 42 °F 29.65 in SSE 4.4 mph 14 mph 47.8% 0.00 in 225 W/m2
12:59 61.9 °F 41.5 °F 29.64 in SSE 3 mph 14 mph 47.1% 0.00 in 202 W/m2
13:04 61.7 °F 41.4 °F 29.62 in SE 3.4 mph 14 mph 47.2% 0.00 in 367 W/m2
13:09 61.6 °F 41.9 °F 29.62 in SE 3.2 mph 11 mph 48.4% 0.00 in 367 W/m2
13:14 61.5 °F 42.3 °F 29.61 in SE 3.5 mph 11 mph 49.2% 0.00 in 332 W/m2
13:19 61.4 °F 42.9 °F 29.60 in SE 4.3 mph 16 mph 50.6% 0.00 in 332 W/m2
13:24 61.4 °F 43.9 °F 29.60 in South 1.9 mph 16 mph 52.4% 0.00 in 374 W/m2
13:29 61.6 °F 44.8 °F 29.59 in SE 1.7 mph 16 mph 53.9% 0.00 in 162 W/m2
13:34 61.7 °F 45.8 °F 29.58 in SSE 4.4 mph 16 mph 56% 0.00 in 162 W/m2
13:39 61.4 °F 46.6 °F 29.57 in SSE 3.4 mph 16 mph 58.1% 0.00 in 260 W/m2
13:44 61.3 °F 47.4 °F 29.56 in SSE 4.8 mph 16 mph 60.2% 0.00 in 260 W/m2
13:49 61.1 °F 47.6 °F 29.56 in SSE 4 mph 16 mph 61.1% 0.00 in 214 W/m2
13:54 60.9 °F 47.8 °F 29.56 in SSE 2.6 mph 16 mph 62% 0.00 in 190 W/m2
13:59 60.9 °F 48.1 °F 29.56 in SSE 2.5 mph 16 mph 62.8% 0.00 in 200 W/m2
14:04 60.9 °F 48.2 °F 29.56 in SE 3.6 mph 16 mph 63% 0.00 in 153 W/m2
14:09 60.7 °F 48.1 °F 29.55 in South 1.6 mph 11 mph 63.1% 0.00 in 100 W/m2
14:14 60.6 °F 48.2 °F 29.55 in South 3 mph 11 mph 63.5% 0.00 in 113 W/m2
14:19 60.5 °F 48.5 °F 29.55 in South 3.4 mph 17 mph 64.4% 0.00 in 181 W/m2
14:24 60.3 °F 48.5 °F 29.55 in South 5.5 mph 17 mph 65% 0.00 in 67 W/m2
14:29 60.1 °F 48.8 °F 29.55 in SSE 2.9 mph 17 mph 66.3% 0.00 in 53 W/m2
14:34 59.8 °F 49.1 °F 29.54 in SSE 2.2 mph 17 mph 67.5% 0.00 in 70 W/m2
14:39 59.6 °F 49.3 °F 29.54 in SSE 3 mph 11 mph 68.6% 0.00 in 65 W/m2
14:44 59.5 °F 49.3 °F 29.53 in South 2.7 mph 11 mph 69% 0.00 in 60 W/m2
14:49 59.5 °F 49.4 °F 29.53 in SSE 3.3 mph 11 mph 69.3% 0.00 in 47 W/m2
14:54 59.4 °F 49.6 °F 29.53 in South 3.4 mph 11 mph 70% 0.00 in 33 W/m2
14:59 59.3 °F 49.6 °F 29.53 in South 1.1 mph 11 mph 70.1% 0.00 in 25 W/m2
15:04 59.2 °F 49.8 °F 29.53 in SSE 1.6 mph 11 mph 71% 0.00 in 18 W/m2
15:09 59.1 °F 49.7 °F 29.52 in SE 1.8 mph 9 mph 71% 0.00 in 12 W/m2
15:14 59 °F 50 °F 29.52 in SE 0.9 mph 9 mph 71.9% 0.00 in 11 W/m2
15:19 58.9 °F 50.1 °F 29.51 in ESE 1.2 mph 12 mph 72.5% 0.00 in 9 W/m2
15:24 58.8 °F 50.2 °F 29.50 in ESE 0.7 mph 12 mph 73% 0.00 in 5 W/m2
15:29 58.7 °F 50.1 °F 29.50 in South 2 mph 12 mph 73% 0.00 in 0 W/m2
15:34 58.6 °F 50.4 °F 29.50 in SE 3.2 mph 12 mph 74% 0.00 in 0 W/m2
15:39 58.5 °F 51 °F 29.50 in ESE 3.4 mph 11 mph 76% 0.02 in 0 W/m2
15:44 58 °F 51.5 °F 29.47 in SE 3.2 mph 11 mph 78.8% 0.04 in 0 W/m2
15:49 57.2 °F 51.8 °F 29.53 in SW 5.9 mph 16 mph 82.2% 0.10 in 0 W/m2
15:54 55.6 °F 50 °F 29.53 in WSW 9 mph 30 mph 81.2% 0.22 in 0 W/m2
15:59 53 °F 47.3 °F 29.52 in WSW 3.8 mph 30 mph 80.8% 0.26 in 0 W/m2
16:00 52 °F 46.7 °F 29.52 in SW 6 mph 30 mph 82% 0.26 in 0 W/m2
16:09 50.3 °F 46.5 °F 29.53 in WSW 2.5 mph 14 mph 86.8% 0.32 in 0 W/m2
16:14 49.7 °F 46.5 °F 29.52 in WSW 1.2 mph 14 mph 88.6% 0.35 in 0 W/m2
16:19 49.5 °F 46.6 °F 29.52 in West 0.7 mph 14 mph 89.7% 0.38 in 0 W/m2
16:24 49.3 °F 46.7 °F 29.52 in WSW 1.1 mph 14 mph 90.9% 0.40 in 0 W/m2
16:29 49.2 °F 46.7 °F 29.52 in WSW 0.6 mph 14 mph 91% 0.40 in 0 W/m2
16:34 49.1 °F 46.8 °F 29.53 in WSW 0.5 mph 14 mph 91.8% 0.40 in 0 W/m2
16:39 49 °F 46.8 °F 29.54 in WSW 0.6 mph 9 mph 92% 0.40 in 0 W/m2
16:44 48.9 °F 46.7 °F 29.54 in WSW 0.6 mph 9 mph 92% 0.40 in 0 W/m2
16:49 48.8 °F 46.8 °F 29.54 in WSW 1.8 mph 11 mph 92.9% 0.40 in 0 W/m2
16:54 48.7 °F 46.8 °F 29.56 in WSW 1 mph 11 mph 93% 0.40 in 0 W/m2
16:59 48.6 °F 46.7 °F 29.57 in WSW 5.9 mph 19 mph 93% 0.40 in 0 W/m2
17:04 48.4 °F 46.5 °F 29.57 in WSW 9.3 mph 22 mph 93% 0.40 in 0 W/m2
17:09 47.9 °F 45.7 °F 29.58 in West 9.3 mph 26 mph 92.2% 0.14 in 0 W/m2
17:14 47.4 °F 45 °F 29.57 in WNW 11 mph 26 mph 91.6% 0.14 in 0 W/m2
17:19 47.1 °F 44.6 °F 29.57 in WNW 10.4 mph 26 mph 91% 0.14 in 0 W/m2
17:24 46.8 °F 44.4 °F 29.58 in NW 11.7 mph 26 mph 91% 0.14 in 0 W/m2
17:29 46.3 °F 43.6 °F 29.58 in NW 8 mph 26 mph 90.1% 0.14 in 0 W/m2
17:34 45.7 °F 42.8 °F 29.58 in NW 8.8 mph 26 mph 89.5% 0.14 in 0 W/m2
17:39 45.2 °F 42.1 °F 29.58 in NW 7.4 mph 17 mph 89% 0.00 in 0 W/m2
17:44 44.7 °F 41.7 °F 29.57 in NW 5.6 mph 17 mph 89% 0.00 in 0 W/m2
17:49 44.4 °F 41.5 °F 29.60 in WNW 3.2 mph 17 mph 89.2% 0.00 in 0 W/m2
17:54 44.2 °F 41.5 °F 29.61 in West 7.4 mph 18 mph 90% 0.00 in 0 W/m2
17:59 44 °F 41.2 °F 29.61 in WNW 5 mph 18 mph 90% 0.00 in 0 W/m2
18:04 43.8 °F 41.1 °F 29.63 in West 5.1 mph 18 mph 90% 0.00 in 0 W/m2
18:09 43.8 °F 41.3 °F 29.64 in West 3.1 mph 13 mph 90.7% 0.00 in 0 W/m2
18:14 43.8 °F 41.4 °F 29.64 in West 4.3 mph 13 mph 91% 0.00 in 0 W/m2
18:19 43.9 °F 41.5 °F 29.64 in West 2.4 mph 13 mph 91% 0.00 in 0 W/m2
18:24 44.1 °F 41.6 °F 29.64 in WNW 5.7 mph 16 mph 91% 0.00 in 0 W/m2
18:29 44.1 °F 41.7 °F 29.66 in West 4.8 mph 16 mph 91% 0.00 in 0 W/m2
18:34 44.2 °F 41.8 °F 29.66 in West 7.1 mph 17 mph 91% 0.00 in 0 W/m2
18:39 44.3 °F 41.8 °F 29.66 in WNW 4.2 mph 17 mph 91% 0.00 in 0 W/m2
18:44 44.3 °F 41.8 °F 29.67 in West 5.7 mph 17 mph 91% 0.00 in 0 W/m2
18:49 44.3 °F 41.8 °F 29.67 in WNW 6.4 mph 17 mph 91% 0.01 in 0 W/m2
18:54 44.2 °F 41.6 °F 29.66 in West 4.3 mph 17 mph 90.7% 0.01 in 0 W/m2
18:59 44 °F 41.2 °F 29.67 in West 5.6 mph 17 mph 90% 0.01 in 0 W/m2
19:04 43.7 °F 40.9 °F 29.68 in West 7.2 mph 17 mph 89.6% 0.01 in 0 W/m2
19:09 43.6 °F 40.6 °F 29.68 in WNW 5.5 mph 17 mph 89% 0.01 in 0 W/m2
19:14 43.5 °F 40.3 °F 29.69 in WNW 6 mph 17 mph 88.4% 0.01 in 0 W/m2
19:19 43.4 °F 40 °F 29.68 in WNW 9.3 mph 19 mph 87.7% 0.01 in 0 W/m2
19:24 43.4 °F 39.7 °F 29.69 in NW 7.7 mph 19 mph 86.7% 0.01 in 0 W/m2
19:29 43.4 °F 39.5 °F 29.69 in NW 8.9 mph 19 mph 86% 0.01 in 0 W/m2
19:34 43.4 °F 39.2 °F 29.69 in NW 7.4 mph 19 mph 85.1% 0.01 in 0 W/m2
19:39 43.4 °F 39.2 °F 29.69 in WNW 3 mph 17 mph 85% 0.01 in 0 W/m2
19:44 43.2 °F 39 °F 29.69 in NW 4.5 mph 17 mph 85% 0.01 in 0 W/m2
19:49 43 °F 38.7 °F 29.69 in WNW 5.6 mph 17 mph 84.6% 0.01 in 0 W/m2
19:54 42.8 °F 38.3 °F 29.69 in WNW 7 mph 17 mph 84% 0.01 in 0 W/m2
19:59 42.7 °F 37.9 °F 29.69 in NW 4.6 mph 17 mph 83.2% 0.01 in 0 W/m2
20:00 42.6 °F 37.8 °F 29.69 in NW 1 mph 17 mph 83% 0.01 in 0 W/m2
20:09 42.3 °F 37.9 °F 29.70 in WNW 2 mph 8 mph 84% 0.00 in 0 W/m2
20:14 42.1 °F 37.7 °F 29.70 in WNW 2.7 mph 11 mph 84% 0.00 in 0 W/m2
20:19 42 °F 37.4 °F 29.70 in WNW 1.9 mph 11 mph 83.8% 0.00 in 0 W/m2
20:24 41.8 °F 37.3 °F 29.70 in WNW 2.9 mph 11 mph 83.8% 0.00 in 0 W/m2
20:29 41.7 °F 37.2 °F 29.71 in WNW 3 mph 11 mph 83.7% 0.00 in 0 W/m2
20:34 41.6 °F 37.1 °F 29.71 in NW 0.2 mph 11 mph 83.9% 0.00 in 0 W/m2
20:39 41.5 °F 37.1 °F 29.71 in NW 0.1 mph 3 mph 84% 0.00 in 0 W/m2
20:44 41.4 °F 37 °F 29.71 in Calm   3 mph 84% 0.00 in 0 W/m2
20:49 41.2 °F 36.8 °F 29.71 in NW 0.1 mph 3 mph 84% 0.00 in 0 W/m2
20:54 41.1 °F 36.9 °F 29.71 in WNW 1.9 mph 11 mph 85.1% 0.00 in 0 W/m2
20:59 40.9 °F 36.7 °F 29.72 in NW 0.4 mph 11 mph 85% 0.00 in 0 W/m2
21:04 40.8 °F 36.6 °F 29.72 in NW 0.2 mph 11 mph 85% 0.00 in 0 W/m2
21:09 40.6 °F 36.5 °F 29.72 in Calm   6 mph 85% 0.00 in 0 W/m2
21:14 40.5 °F 36.4 °F 29.72 in Calm   6 mph 85.2% 0.00 in 0 W/m2
21:19 40.3 °F 36.4 °F 29.73 in NW 0.1 mph 6 mph 86% 0.00 in 0 W/m2
21:24 40.1 °F 36.3 °F 29.72 in West 0.5 mph 6 mph 86% 0.00 in 0 W/m2
21:29 39.9 °F 36.1 °F 29.73 in Calm   6 mph 86% 0.00 in 0 W/m2
21:34 39.8 °F 35.9 °F 29.73 in Calm   6 mph 86% 0.00 in 0 W/m2
21:39 39.6 °F 35.8 °F 29.73 in West 0.1 mph 4 mph 86% 0.00 in 0 W/m2
21:44 39.5 °F 35.9 °F 29.74 in Calm   4 mph 87% 0.00 in 0 W/m2
21:49 39.3 °F 35.8 °F 29.74 in Calm   4 mph 87% 0.00 in 0 W/m2
21:54 39.2 °F 35.7 °F 29.74 in Calm   4 mph 87% 0.00 in 0 W/m2
21:59 39.1 °F 35.6 °F 29.75 in Calm   4 mph 87% 0.00 in 0 W/m2
22:04 39 °F 35.7 °F 29.75 in Calm   4 mph 87.7% 0.00 in 0 W/m2
22:09 38.9 °F 35.7 °F 29.75 in Calm     88% 0.00 in 0 W/m2
22:14 38.9 °F 35.8 °F 29.75 in Calm     88.5% 0.00 in 0 W/m2
22:19 39.1 °F 36.3 °F 29.75 in Calm     89.6% 0.00 in 0 W/m2
22:24 39.4 °F 36.9 °F 29.75 in Calm     90.8% 0.00 in 0 W/m2
22:29 39.5 °F 37.1 °F 29.75 in Calm     91% 0.00 in 0 W/m2
22:34 39.4 °F 37 °F 29.75 in Calm     91% 0.00 in 0 W/m2
22:39 39.2 °F 36.8 °F 29.75 in Calm     91% 0.00 in 0 W/m2
22:44 39.1 °F 36.7 °F 29.75 in West 0.1 mph 2 mph 91% 0.00 in 0 W/m2
22:49 39 °F 36.6 °F 29.76 in Calm   2 mph 91% 0.00 in 0 W/m2
22:54 39 °F 36.6 °F 29.76 in Calm   2 mph 91% 0.00 in 0 W/m2
22:59 39 °F 36.6 °F 29.76 in Calm   2 mph 91% 0.00 in 0 W/m2
23:00 39 °F 36.6 °F 29.76 in Calm   2 mph 91% 0.00 in 0 W/m2
23:09 38.8 °F 36.3 °F 29.76 in Calm     90.6% 0.00 in 0 W/m2
23:14 38.7 °F 36 °F 29.77 in WSW 0.4 mph 5 mph 90% 0.00 in 0 W/m2
23:19 38.6 °F 35.9 °F 29.77 in WSW 0.1 mph 5 mph 90% 0.00 in 0 W/m2
23:24 38.5 °F 35.9 °F 29.77 in Calm   5 mph 90% 0.00 in 0 W/m2
23:29 38.5 °F 35.8 °F 29.77 in Calm   5 mph 90% 0.00 in 0 W/m2
23:34 38.4 °F 35.7 °F 29.77 in WSW 0.3 mph 5 mph 90% 0.00 in 0 W/m2
23:39 38.2 °F 35.5 °F 29.77 in Calm   4 mph 89.6% 0.00 in 0 W/m2
23:44 38.2 °F 35.2 °F 29.78 in Calm   4 mph 89% 0.00 in 0 W/m2
23:49 38.1 °F 35.2 °F 29.77 in WSW 0.8 mph 4 mph 89% 0.00 in 0 W/m2
23:54 38.2 °F 35.4 °F 29.78 in WSW 0.5 mph 5 mph 89.5% 0.00 in 0 W/m2
23:59 38.2 °F 35.3 °F 29.77 in WSW 0.4 mph 5 mph 89% 0.00 in 0 W/m2
Hartford County Weather
Compliments of Weather Underground - 2 mb